Time;durP1;ratioP1;P1;durP2;ratioP2;P2;SDS_P1;SDS_P2;PMS_P1;PMS_P2;Temp;Humidity;BMP_temperature;BMP_pressure;BME280_temperature;BME280_humidity;BME280_pressure;Samples;Min_cycle;Max_cycle;Signal;HPM_P1;HPM_P2
2023/12/23 00:00:43;;;;;;;;;;;;;;;15.05;47.91;101606.47;4230524;28;19970;-63
2023/12/23 00:02:44;;;;;;;;;;;;;;;15.05;48.09;101612.63;4230689;28;19942;-62
2023/12/23 00:04:46;;;;;;;;;;;;;;;15.04;47.77;101621.47;4230641;28;20019;-62
2023/12/23 00:06:47;;;;;;;;;;;;;;;15.05;48.14;101623.22;4230843;28;19919;-63
2023/12/23 00:08:49;;;;;;;;;;;;;;;15.03;48.05;101617.13;4230523;28;20289;-62
2023/12/23 00:10:50;;;;;;;;;;;;;;;15.04;48.09;101618.84;4230187;28;19924;-62
2023/12/23 00:12:52;;;;;;;;;;;;;;;15.02;47.97;101623.34;4230803;28;20341;-62
2023/12/23 00:14:54;;;;;;;;;;;;;;;15.02;48.08;101629.50;4230541;28;19963;-63
2023/12/23 00:16:55;;;;;;;;;;;;;;;15.02;47.90;101626.84;4230563;28;19931;-62
2023/12/23 00:18:57;;;;;;;;;;;;;;;15.02;48.01;101620.72;4230458;28;19920;-62
2023/12/23 00:20:58;;;;;;;;;;;;;;;15.00;48.08;101627.84;4230255;28;20018;-63
2023/12/23 00:23:00;;;;;;;;;;;;;;;15.00;47.87;101638.44;4230688;28;19972;-62
2023/12/23 00:25:02;;;;;;;;;;;;;;;14.99;47.93;101640.25;4229028;28;19919;-63
2023/12/23 00:27:04;;;;;;;;;;;;;;;14.99;48.17;101640.25;4230203;28;19919;-63
2023/12/23 00:29:06;;;;;;;;;;;;;;;14.99;47.93;101644.66;4230698;28;19920;-62
2023/12/23 00:31:07;;;;;;;;;;;;;;;14.99;47.94;101642.88;4229203;28;19919;-62
2023/12/23 00:33:09;;;;;;;;;;;;;;;14.99;48.10;101652.59;4230623;28;19924;-62
2023/12/23 00:35:10;;;;;;;;;;;;;;;14.98;47.90;101650.88;4230501;28;19920;-62
2023/12/23 00:37:12;;;;;;;;;;;;;;;14.97;48.10;101643.84;4230432;28;19923;-62
2023/12/23 00:39:15;;;;;;;;;;;;;;;14.96;48.05;101636.84;4230442;28;19919;-62
2023/12/23 00:41:16;;;;;;;;;;;;;;;14.95;47.91;101643.06;4230087;28;19994;-63
2023/12/23 00:43:18;;;;;;;;;;;;;;;14.95;47.91;101643.06;4230281;28;19943;-63
2023/12/23 00:45:19;;;;;;;;;;;;;;;14.94;48.19;101641.34;4230574;28;20003;-63
2023/12/23 00:47:21;;;;;;;;;;;;;;;14.94;48.19;101641.34;4233600;28;19927;-63
2023/12/23 00:49:23;;;;;;;;;;;;;;;14.94;48.10;101636.88;4233474;28;19926;-63
2023/12/23 00:51:25;;;;;;;;;;;;;;;14.93;47.88;101640.44;4233565;28;19924;-63
2023/12/23 00:53:27;;;;;;;;;;;;;;;14.93;48.05;101629.00;4233794;28;19935;-63
2023/12/23 00:55:28;;;;;;;;;;;;;;;14.93;48.12;101634.31;4233350;28;19920;-63
2023/12/23 00:57:30;;;;;;;;;;;;;;;14.93;48.07;101639.59;4233543;28;19926;-63
2023/12/23 00:59:31;;;;;;;;;;;;;;;14.92;48.11;101632.56;4233410;27;19931;-63
2023/12/23 01:01:33;;;;;;;;;;;;;;;14.91;48.18;101637.03;4233511;28;19962;-63
2023/12/23 01:03:34;;;;;;;;;;;;;;;14.92;48.11;101633.44;4233609;28;19926;-63
2023/12/23 01:05:36;;;;;;;;;;;;;;;14.92;47.99;101627.28;4233336;28;19920;-63
2023/12/23 01:07:37;;;;;;;;;;;;;;;14.91;47.91;101626.44;4233375;28;20010;-63
2023/12/23 01:09:39;;;;;;;;;;;;;;;14.91;48.06;101621.13;4233119;28;19920;-63
2023/12/23 01:11:41;;;;;;;;;;;;;;;14.90;48.00;101614.09;4233232;28;20425;-63
2023/12/23 01:13:42;;;;;;;;;;;;;;;14.90;48.07;101608.81;4233294;28;19926;-63
2023/12/23 01:15:44;;;;;;;;;;;;;;;14.91;48.19;101620.25;4233177;28;19926;-63
2023/12/23 01:17:45;;;;;;;;;;;;;;;14.90;48.34;101621.16;4233334;28;19923;-63
2023/12/23 01:19:47;;;;;;;;;;;;;;;14.89;48.27;101622.97;4233142;28;19926;-63
2023/12/23 01:21:49;;;;;;;;;;;;;;;14.89;48.14;101622.13;4233186;28;19919;-63
2023/12/23 01:23:51;;;;;;;;;;;;;;;14.89;48.00;101620.31;4232668;28;19920;-61
2023/12/23 01:25:52;;;;;;;;;;;;;;;14.88;48.02;101623.03;4232817;28;19920;-63
2023/12/23 01:27:54;;;;;;;;;;;;;;;14.88;48.11;101633.63;4233129;28;20374;-63
2023/12/23 01:29:56;;;;;;;;;;;;;;;14.88;48.20;101633.63;4233077;28;20378;-62
2023/12/23 01:31:58;;;;;;;;;;;;;;;14.87;47.99;101632.75;4232823;28;19920;-63
2023/12/23 01:33:59;;;;;;;;;;;;;;;14.87;48.04;101642.50;4232941;28;19919;-63
2023/12/23 01:36:02;;;;;;;;;;;;;;;14.86;48.31;101636.34;4233037;28;19926;-62
2023/12/23 01:38:04;;;;;;;;;;;;;;;14.85;47.91;101648.69;4232552;28;19920;-63
2023/12/23 01:40:09;;;;;;;;;;;;;;;14.85;48.11;101647.84;4232895;28;19919;-63
2023/12/23 01:42:10;;;;;;;;;;;;;;;14.85;48.01;101629.31;4231679;28;20356;-61
2023/12/23 01:44:12;;;;;;;;;;;;;;;14.84;48.10;101648.78;4232631;28;19924;-63
2023/12/23 01:46:13;;;;;;;;;;;;;;;14.83;48.16;101642.59;4232777;28;19919;-61
2023/12/23 01:48:15;;;;;;;;;;;;;;;14.84;48.10;101641.69;4232839;28;19923;-62
2023/12/23 01:50:19;;;;;;;;;;;;;;;14.82;48.17;101627.66;4232524;28;19919;-61
2023/12/23 01:52:21;;;;;;;;;;;;;;;14.81;48.25;101610.03;4232157;28;19920;-61
2023/12/23 01:54:22;;;;;;;;;;;;;;;14.82;48.04;101613.53;4231426;28;19926;-61
2023/12/23 01:56:24;;;;;;;;;;;;;;;14.81;48.06;101617.09;4232648;28;19927;-62
2023/12/23 01:58:26;;;;;;;;;;;;;;;14.81;48.43;101617.97;4232567;28;20117;-64
2023/12/23 02:00:27;;;;;;;;;;;;;;;14.81;48.33;101617.97;4232404;28;19924;-63
2023/12/23 02:02:29;;;;;;;;;;;;;;;14.79;48.04;101603.06;4232419;28;19965;-63
2023/12/23 02:04:31;;;;;;;;;;;;;;;14.80;48.22;101603.00;4232572;28;19923;-61
2023/12/23 02:06:33;;;;;;;;;;;;;;;14.80;48.25;101607.41;4232598;28;19920;-62
2023/12/23 02:08:34;;;;;;;;;;;;;;;14.79;48.12;101595.97;4232167;28;19936;-63
2023/12/23 02:10:36;;;;;;;;;;;;;;;14.79;48.23;101601.28;4232352;28;19920;-63
2023/12/23 02:12:48;;;;;;;;;;;;;;;14.79;48.14;101597.78;4232421;28;19984;-63
2023/12/23 02:15:02;;;;;;;;;;;;;;;14.79;48.17;101597.78;4232418;28;19964;-64
2023/12/23 02:17:04;;;;;;;;;;;;;;;14.79;48.30;101593.34;4232244;28;19920;-63
2023/12/23 02:19:06;;;;;;;;;;;;;;;14.79;48.14;101587.19;4232307;28;19942;-63
2023/12/23 02:21:07;;;;;;;;;;;;;;;14.79;47.96;101589.84;4231875;28;19965;-63
2023/12/23 02:23:10;;;;;;;;;;;;;;;14.78;48.23;101585.47;4231903;28;19919;-63
2023/12/23 02:25:12;;;;;;;;;;;;;;;14.78;48.38;101588.09;4231941;28;20006;-63
2023/12/23 02:27:14;;;;;;;;;;;;;;;14.77;48.23;101583.72;4232136;28;19947;-61
2023/12/23 02:29:18;;;;;;;;;;;;;;;14.78;48.41;101590.75;4232214;28;20224;-61
2023/12/23 02:31:20;;;;;;;;;;;;;;;14.77;48.23;101603.13;4231939;28;19920;-61
2023/12/23 02:33:22;;;;;;;;;;;;;;;14.76;48.11;101598.72;4231895;28;20026;-62
2023/12/23 02:35:26;;;;;;;;;;;;;;;14.77;48.09;101602.25;4232096;28;20388;-61
2023/12/23 02:37:28;;;;;;;;;;;;;;;14.77;48.15;101602.25;4231512;27;19923;-63
2023/12/23 02:39:30;;;;;;;;;;;;;;;14.76;48.23;101596.09;4231892;28;20027;-62
2023/12/23 02:41:31;;;;;;;;;;;;;;;14.75;47.88;101599.69;4231691;28;19919;-63
2023/12/23 02:43:33;;;;;;;;;;;;;;;14.75;48.11;101597.03;4231707;28;19923;-63
2023/12/23 02:45:34;;;;;;;;;;;;;;;14.76;48.33;101584.66;4231901;28;20386;-63
2023/12/23 02:47:36;;;;;;;;;;;;;;;14.75;48.06;101593.50;4230467;28;19972;-63
2023/12/23 02:49:37;;;;;;;;;;;;;;;14.74;48.30;101594.44;4231499;28;19965;-63
2023/12/23 02:51:39;;;;;;;;;;;;;;;14.75;48.17;101594.38;4231342;28;19981;-63
2023/12/23 02:53:40;;;;;;;;;;;;;;;14.74;48.32;101591.78;4231609;28;20038;-63
2023/12/23 02:55:42;;;;;;;;;;;;;;;14.73;48.33;101593.56;4231713;28;19924;-64
2023/12/23 02:57:43;;;;;;;;;;;;;;;14.73;48.11;101595.34;4231743;28;19920;-63
2023/12/23 02:59:45;;;;;;;;;;;;;;;14.72;48.09;101594.50;4231649;28;19919;-63
2023/12/23 03:01:46;;;;;;;;;;;;;;;14.73;48.12;101598.00;4231485;28;19920;-63
2023/12/23 03:03:48;;;;;;;;;;;;;;;14.73;48.34;101604.16;4231489;28;19926;-63
2023/12/23 03:05:49;;;;;;;;;;;;;;;14.73;48.24;101596.22;4231280;28;19927;-63
2023/12/23 03:07:51;;;;;;;;;;;;;;;14.73;48.17;101600.63;4231212;28;19920;-63
2023/12/23 03:09:52;;;;;;;;;;;;;;;14.72;47.97;101597.13;4231264;28;19930;-63
2023/12/23 03:11:54;;;;;;;;;;;;;;;14.72;48.12;101605.09;4231510;28;20279;-63
2023/12/23 03:13:56;;;;;;;;;;;;;;;14.71;48.39;101608.66;4230283;28;19920;-63
2023/12/23 03:15:57;;;;;;;;;;;;;;;14.71;48.17;101607.81;4231405;28;19919;-63
2023/12/23 03:17:59;;;;;;;;;;;;;;;14.70;48.19;101614.88;4231321;28;20394;-63
2023/12/23 03:20:00;;;;;;;;;;;;;;;14.70;47.97;101620.16;4230844;28;20007;-63
2023/12/23 03:22:02;;;;;;;;;;;;;;;14.70;48.28;101617.50;4231432;28;20192;-63
2023/12/23 03:24:04;;;;;;;;;;;;;;;14.69;48.25;101619.31;4231056;28;19926;-62
2023/12/23 03:26:08;;;;;;;;;;;;;;;14.69;48.33;101611.38;4231130;28;19946;-62
2023/12/23 03:28:10;;;;;;;;;;;;;;;14.68;48.00;101617.56;4231227;28;19955;-63
2023/12/23 03:30:11;;;;;;;;;;;;;;;14.69;48.19;101615.78;4231147;28;19943;-63
2023/12/23 03:32:13;;;;;;;;;;;;;;;14.67;48.26;101592.00;4230902;28;19972;-62
2023/12/23 03:34:15;;;;;;;;;;;;;;;14.66;48.21;101592.94;4230805;28;19920;-63
2023/12/23 03:36:16;;;;;;;;;;;;;;;14.67;48.15;101593.81;4231171;28;19920;-63
2023/12/23 03:38:18;;;;;;;;;;;;;;;14.66;47.94;101579.69;4230906;28;19973;-63
2023/12/23 03:40:20;;;;;;;;;;;;;;;14.66;48.22;101565.59;4230843;28;19927;-63
2023/12/23 03:42:21;;;;;;;;;;;;;;;14.65;48.17;101554.16;4230726;28;19927;-63
2023/12/23 03:44:23;;;;;;;;;;;;;;;14.65;48.10;101545.31;4231187;28;19994;-62
2023/12/23 03:46:26;;;;;;;;;;;;;;;14.65;47.97;101542.66;4229728;28;19920;-63
2023/12/23 03:48:28;;;;;;;;;;;;;;;14.64;48.01;101549.75;4230794;28;19919;-63
2023/12/23 03:50:30;;;;;;;;;;;;;;;14.65;48.15;101540.94;4229607;28;19924;-63
2023/12/23 03:52:31;;;;;;;;;;;;;;;14.65;47.95;101547.97;4230671;28;20267;-63
2023/12/23 03:54:33;;;;;;;;;;;;;;;14.65;48.23;101555.91;4230798;28;20294;-63
2023/12/23 03:56:35;;;;;;;;;;;;;;;14.63;48.15;101558.63;4230671;28;19919;-63
2023/12/23 03:58:36;;;;;;;;;;;;;;;14.63;48.34;101561.28;4230931;28;19926;-63
2023/12/23 04:00:38;;;;;;;;;;;;;;;14.63;48.24;101561.28;4230655;28;19943;-63
2023/12/23 04:02:39;;;;;;;;;;;;;;;14.63;48.31;101568.34;4230902;28;19954;-63
2023/12/23 04:04:46;;;;;;;;;;;;;;;14.61;48.10;101565.75;4230561;28;19919;-63
2023/12/23 04:06:47;;;;;;;;;;;;;;;14.62;48.44;101572.78;4230763;28;19920;-63
2023/12/23 04:08:49;;;;;;;;;;;;;;;14.62;48.28;101564.00;4230818;28;19980;-63
2023/12/23 04:10:50;;;;;;;;;;;;;;;14.61;48.06;101557.81;4230742;28;19958;-62
2023/12/23 04:12:53;;;;;;;;;;;;;;;14.61;48.07;101549.03;4229447;28;20380;-63
2023/12/23 04:14:54;;;;;;;;;;;;;;;14.60;48.19;101545.50;4230523;28;19927;-63
2023/12/23 04:17:01;;;;;;;;;;;;;;;14.60;48.34;101542.00;4230770;28;20301;-62
2023/12/23 04:19:07;;;;;;;;;;;;;;;14.60;48.07;101539.34;4230170;28;20338;-63
2023/12/23 04:21:10;;;;;;;;;;;;;;;14.59;48.27;101529.69;4232411;28;19965;-62
2023/12/23 04:23:12;;;;;;;;;;;;;;;14.59;48.38;101527.03;4234051;28;19951;-63
2023/12/23 04:25:14;;;;;;;;;;;;;;;14.59;47.98;101524.38;4233779;27;19924;-62
2023/12/23 04:27:15;;;;;;;;;;;;;;;14.59;47.94;101529.69;4233869;28;19920;-61
2023/12/23 04:29:17;;;;;;;;;;;;;;;14.58;48.22;101522.66;4234054;28;19920;-62
2023/12/23 04:31:24;;;;;;;;;;;;;;;14.57;48.31;101524.44;4233982;27;19984;-61
2023/12/23 04:33:30;;;;;;;;;;;;;;;14.58;48.25;101530.59;4232497;28;20014;-60
2023/12/23 04:35:32;;;;;;;;;;;;;;;14.57;48.34;101542.09;4233989;28;20010;-60
2023/12/23 04:37:33;;;;;;;;;;;;;;;14.55;48.13;101547.47;4233941;28;19924;-61
2023/12/23 04:39:35;;;;;;;;;;;;;;;14.56;48.20;101550.97;4233537;28;19920;-60
2023/12/23 04:41:36;;;;;;;;;;;;;;;14.56;48.18;101545.66;4233865;28;19947;-62
2023/12/23 04:43:43;;;;;;;;;;;;;;;14.56;48.11;101543.03;4233882;28;20354;-62
2023/12/23 04:45:44;;;;;;;;;;;;;;;14.56;48.18;101537.72;4233669;28;19919;-62
2023/12/23 04:47:46;;;;;;;;;;;;;;;14.54;48.24;101536.03;4233422;28;19933;-61
2023/12/23 04:49:48;;;;;;;;;;;;;;;14.53;48.23;101539.59;4232427;28;19969;-62
2023/12/23 04:51:49;;;;;;;;;;;;;;;14.53;48.08;101544.88;4233605;28;19923;-62
2023/12/23 04:53:56;;;;;;;;;;;;;;;14.53;48.25;101547.53;4233626;28;19971;-61
2023/12/23 04:55:57;;;;;;;;;;;;;;;14.52;48.23;101551.09;4233612;27;19920;-60
2023/12/23 04:58:04;;;;;;;;;;;;;;;14.51;48.17;101544.06;4233632;28;19923;-61
2023/12/23 05:00:06;;;;;;;;;;;;;;;14.52;47.99;101539.63;4233551;28;19920;-61
2023/12/23 05:02:08;;;;;;;;;;;;;;;14.52;48.18;101537.88;4231920;28;20290;-61
2023/12/23 05:04:09;;;;;;;;;;;;;;;14.51;48.00;101536.13;4233644;28;19919;-61
2023/12/23 05:06:11;;;;;;;;;;;;;;;14.53;48.20;101554.59;4233549;28;20302;-62
2023/12/23 05:08:17;;;;;;;;;;;;;;;14.51;48.06;101552.00;4233183;28;19927;-62
2023/12/23 05:10:19;;;;;;;;;;;;;;;14.51;48.27;101546.72;4233346;28;19972;-62
2023/12/23 05:12:23;;;;;;;;;;;;;;;14.51;48.19;101544.06;4233326;28;20003;-61
2023/12/23 05:14:25;;;;;;;;;;;;;;;14.51;48.34;101545.88;4233115;28;20014;-62
2023/12/23 05:16:27;;;;;;;;;;;;;;;14.50;47.99;101542.34;4233046;28;20375;-61
2023/12/23 05:18:28;;;;;;;;;;;;;;;14.50;48.34;101530.91;4233170;28;19920;-61
2023/12/23 05:20:30;;;;;;;;;;;;;;;14.50;48.46;101531.75;4214933;28;19950;-61
2023/12/23 05:22:31;;;;;;;;;;;;;;;14.50;48.24;101536.19;4233079;28;19945;-61
2023/12/23 05:24:33;;;;;;;;;;;;;;;14.48;48.37;101528.31;4232691;28;19927;-61
2023/12/23 05:26:35;;;;;;;;;;;;;;;14.50;48.39;101533.56;4231901;28;19920;-62
2023/12/23 05:28:36;;;;;;;;;;;;;;;14.49;48.33;101526.53;4232043;28;20018;-61
2023/12/23 05:30:38;;;;;;;;;;;;;;;14.49;48.42;101518.59;4231759;28;19924;-62
2023/12/23 05:32:44;;;;;;;;;;;;;;;14.48;48.50;101524.81;4231593;28;19972;-61
2023/12/23 05:34:46;;;;;;;;;;;;;;;14.48;48.09;101533.63;4232117;28;19930;-62
2023/12/23 05:36:47;;;;;;;;;;;;;;;14.48;48.51;101527.44;4231998;28;19923;-62
2023/12/23 05:38:49;;;;;;;;;;;;;;;14.47;48.15;101529.25;4232081;28;20498;-61
2023/12/23 05:40:50;;;;;;;;;;;;;;;14.46;48.18;101516.03;4232033;28;20014;-61
2023/12/23 05:42:52;;;;;;;;;;;;;;;14.47;48.06;101517.78;4230748;28;20479;-61
2023/12/23 05:44:58;;;;;;;;;;;;;;;14.46;48.47;101519.56;4231797;28;19959;-62
2023/12/23 05:47:00;;;;;;;;;;;;;;;14.46;48.21;101527.50;4231875;28;19920;-62
2023/12/23 05:49:02;;;;;;;;;;;;;;;14.45;48.39;101520.50;4232016;28;19920;-60
2023/12/23 05:51:06;;;;;;;;;;;;;;;14.46;48.08;101522.22;4231653;28;19923;-61
2023/12/23 05:53:08;;;;;;;;;;;;;;;14.45;48.42;101509.06;4231780;28;19920;-61
2023/12/23 05:55:09;;;;;;;;;;;;;;;14.45;48.27;101517.00;4231848;28;19919;-61
2023/12/23 05:57:11;;;;;;;;;;;;;;;14.44;48.24;101524.06;4231794;28;19949;-61
2023/12/23 05:59:13;;;;;;;;;;;;;;;14.44;48.13;101528.50;4231575;28;19920;-60
2023/12/23 06:01:15;;;;;;;;;;;;;;;14.43;48.50;101522.31;4231682;28;19978;-61
2023/12/23 06:03:16;;;;;;;;;;;;;;;14.42;48.06;101523.25;4231721;28;20031;-61
2023/12/23 06:05:18;;;;;;;;;;;;;;;14.42;48.51;101525.88;4231708;28;19919;-61
2023/12/23 06:07:20;;;;;;;;;;;;;;;14.42;48.15;101525.03;4231637;28;19943;-62
2023/12/23 06:09:21;;;;;;;;;;;;;;;14.41;48.51;101526.84;4231427;28;19919;-62
2023/12/23 06:11:23;;;;;;;;;;;;;;;14.41;48.20;101525.97;4231581;28;19919;-61
2023/12/23 06:13:25;;;;;;;;;;;;;;;14.41;48.35;101528.59;4231218;28;19923;-62
2023/12/23 06:15:27;;;;;;;;;;;;;;;14.41;48.46;101529.50;4231385;28;20354;-61
2023/12/23 06:17:29;;;;;;;;;;;;;;;14.40;47.98;101533.03;4231573;28;20010;-61
2023/12/23 06:19:30;;;;;;;;;;;;;;;14.41;48.23;101531.25;4230020;28;19919;-60
2023/12/23 06:21:32;;;;;;;;;;;;;;;14.40;48.24;101526.88;4231167;28;20359;-61
2023/12/23 06:23:33;;;;;;;;;;;;;;;14.40;48.34;101535.69;4231498;28;19947;-62
2023/12/23 06:25:35;;;;;;;;;;;;;;;14.40;48.18;101542.75;4194227;28;1064590;-62
2023/12/23 06:27:37;;;;;;;;;;;;;;;14.38;48.28;101535.72;4232082;28;19939;-61
2023/12/23 06:29:39;;;;;;;;;;;;;;;14.38;48.19;101546.31;4231786;28;19920;-61
2023/12/23 06:31:40;;;;;;;;;;;;;;;14.38;48.14;101546.31;4232090;28;19920;-61
2023/12/23 06:33:41;;;;;;;;;;;;;;;14.38;48.00;101548.13;4232092;28;19920;-61
2023/12/23 06:35:43;;;;;;;;;;;;;;;14.36;48.28;101542.88;4232123;28;19972;-61
2023/12/23 06:37:45;;;;;;;;;;;;;;;14.37;48.21;101543.75;4231893;28;19931;-62
2023/12/23 06:39:46;;;;;;;;;;;;;;;14.27;48.05;101529.16;4231786;28;19920;-61
2023/12/23 06:41:48;;;;;;;;;;;;;;;14.37;48.18;101547.28;4231957;28;19924;-61
2023/12/23 06:43:49;;;;;;;;;;;;;;;14.37;48.40;101543.75;4230562;28;20063;-61
2023/12/23 06:45:53;;;;;;;;;;;;;;;14.36;48.34;101548.19;4231985;28;20401;-59
2023/12/23 06:47:55;;;;;;;;;;;;;;;14.36;48.33;101536.72;4231844;28;20412;-60
2023/12/23 06:49:57;;;;;;;;;;;;;;;14.36;48.03;101523.47;4231694;28;19920;-61
2023/12/23 06:51:58;;;;;;;;;;;;;;;14.35;48.08;101530.56;4231653;27;19965;-60
2023/12/23 06:54:00;;;;;;;;;;;;;;;14.36;48.02;101534.06;4231717;28;20395;-62
2023/12/23 06:56:05;;;;;;;;;;;;;;;14.36;47.85;101539.38;4231656;28;19919;-61
2023/12/23 06:58:07;;;;;;;;;;;;;;;14.36;48.23;101544.66;4231241;28;20344;-60
2023/12/23 07:00:08;;;;;;;;;;;;;;;14.35;48.38;101554.38;4231349;28;20011;-62
2023/12/23 07:02:10;;;;;;;;;;;;;;;14.35;48.29;101556.16;4231728;28;19927;-62
2023/12/23 07:04:12;;;;;;;;;;;;;;;14.34;47.93;101555.31;4231527;28;19920;-61
2023/12/23 07:06:13;;;;;;;;;;;;;;;14.34;47.89;101549.16;4230199;28;19981;-62
2023/12/23 07:08:15;;;;;;;;;;;;;;;14.36;47.77;101560.53;4231637;28;19931;-61
2023/12/23 07:10:17;;;;;;;;;;;;;;;14.34;48.04;101557.97;4231493;28;19920;-62
2023/12/23 07:12:18;;;;;;;;;;;;;;;14.34;47.80;101547.38;4230994;28;19919;-61
2023/12/23 07:14:20;;;;;;;;;;;;;;;14.34;47.96;101551.81;4231330;28;19974;-62
2023/12/23 07:16:22;;;;;;;;;;;;;;;14.33;48.11;101544.78;4231432;28;19919;-62
2023/12/23 07:18:23;;;;;;;;;;;;;;;14.33;48.02;101558.88;4231397;28;19926;-62
2023/12/23 07:20:25;;;;;;;;;;;;;;;14.32;47.87;101548.34;4231112;28;19931;-62
2023/12/23 07:22:28;;;;;;;;;;;;;;;14.32;47.76;101553.66;4231360;28;19927;-62
2023/12/23 07:24:30;;;;;;;;;;;;;;;14.32;48.04;101553.66;4231011;28;19955;-61
2023/12/23 07:26:34;;;;;;;;;;;;;;;14.31;47.89;101559.84;4230679;28;19919;-62
2023/12/23 07:28:37;;;;;;;;;;;;;;;14.31;47.82;101565.16;4231175;28;19927;-62
2023/12/23 07:30:44;;;;;;;;;;;;;;;14.32;47.98;101577.47;4231269;28;19930;-62
2023/12/23 07:32:46;;;;;;;;;;;;;;;14.31;47.84;101573.09;4231063;28;20367;-62
2023/12/23 07:34:48;;;;;;;;;;;;;;;14.31;48.29;101578.38;4230819;28;19923;-62
2023/12/23 07:36:49;;;;;;;;;;;;;;;14.31;47.94;101575.72;4231062;28;20000;-61
2023/12/23 07:38:51;;;;;;;;;;;;;;;14.31;47.84;101570.44;4231244;28;20480;-61
2023/12/23 07:40:52;;;;;;;;;;;;;;;14.30;48.04;101581.94;4230691;28;20336;-61
2023/12/23 07:42:54;;;;;;;;;;;;;;;14.29;47.95;101583.72;4230837;28;19919;-62
2023/12/23 07:44:55;;;;;;;;;;;;;;;14.29;47.83;101589.03;4230924;28;19923;-62
2023/12/23 07:46:57;;;;;;;;;;;;;;;14.29;47.96;101591.66;4230785;28;19919;-62
2023/12/23 07:48:59;;;;;;;;;;;;;;;14.29;48.05;101593.44;4230942;28;19920;-61
2023/12/23 07:51:06;;;;;;;;;;;;;;;14.28;47.94;101592.59;4231002;28;19920;-62
2023/12/23 07:53:08;;;;;;;;;;;;;;;14.27;48.11;101582.06;4229483;28;20019;-62
2023/12/23 07:55:10;;;;;;;;;;;;;;;14.26;48.24;101577.69;4230445;28;20010;-62
2023/12/23 07:57:11;;;;;;;;;;;;;;;14.27;48.01;101569.69;4230949;28;20286;-62
2023/12/23 07:59:13;;;;;;;;;;;;;;;14.26;47.94;101552.09;4230826;28;20382;-62
2023/12/23 08:01:14;;;;;;;;;;;;;;;14.27;47.86;101552.97;4230567;28;20093;-62
2023/12/23 08:03:16;;;;;;;;;;;;;;;14.26;48.08;101557.38;4230807;28;19927;-62
2023/12/23 08:05:18;;;;;;;;;;;;;;;14.27;48.27;101555.59;4230846;28;19927;-61
2023/12/23 08:07:19;;;;;;;;;;;;;;;14.27;48.25;101559.09;4230722;28;19920;-63
2023/12/23 08:09:21;;;;;;;;;;;;;;;14.27;48.08;101555.59;4230733;28;19927;-62
2023/12/23 08:11:22;;;;;;;;;;;;;;;14.27;47.91;101555.59;4230723;28;19923;-62
2023/12/23 08:13:24;;;;;;;;;;;;;;;14.26;47.94;101554.72;4229313;28;19965;-62
2023/12/23 08:15:25;;;;;;;;;;;;;;;14.26;47.92;101552.09;4230470;28;19969;-61
2023/12/23 08:17:27;;;;;;;;;;;;;;;14.27;47.70;101553.81;4230626;28;20386;-61
2023/12/23 08:19:28;;;;;;;;;;;;;;;14.27;48.06;101563.53;4230364;28;19919;-62
2023/12/23 08:21:30;;;;;;;;;;;;;;;14.26;48.10;101564.47;4230357;28;19970;-61
2023/12/23 08:23:32;;;;;;;;;;;;;;;14.26;47.70;101575.91;4230357;28;20389;-62
2023/12/23 08:25:33;;;;;;;;;;;;;;;14.26;48.20;101572.41;4229913;28;19972;-62
2023/12/23 08:27:36;;;;;;;;;;;;;;;14.27;47.94;101576.78;4230574;28;19919;-62
2023/12/23 08:29:39;;;;;;;;;;;;;;;14.26;47.92;101580.34;4230262;28;19953;-62
2023/12/23 08:31:44;;;;;;;;;;;;;;;14.26;47.87;101586.47;4230164;28;20453;-62
2023/12/23 08:33:46;;;;;;;;;;;;;;;14.26;48.23;101593.56;4230364;28;19930;-61
2023/12/23 08:35:47;;;;;;;;;;;;;;;14.26;47.92;101588.28;4230248;28;20044;-60
2023/12/23 08:37:49;;;;;;;;;;;;;;;14.25;47.85;101592.69;4230081;28;20012;-63
2023/12/23 08:39:52;;;;;;;;;;;;;;;14.25;47.95;101595.34;4229986;28;19923;-62
2023/12/23 08:41:53;;;;;;;;;;;;;;;14.25;47.87;101597.13;4230352;28;19919;-62
2023/12/23 08:43:55;;;;;;;;;;;;;;;14.25;48.16;101608.56;4230170;28;20014;-62
2023/12/23 08:45:56;;;;;;;;;;;;;;;14.24;47.93;101604.22;4230113;28;19924;-62
2023/12/23 08:47:58;;;;;;;;;;;;;;;14.23;48.01;101607.78;4228800;28;19966;-62
2023/12/23 08:50:00;;;;;;;;;;;;;;;14.23;48.21;101610.41;4230067;28;19952;-63
2023/12/23 08:52:01;;;;;;;;;;;;;;;14.24;48.04;101603.34;4230102;28;19953;-62
2023/12/23 08:54:03;;;;;;;;;;;;;;;14.24;48.29;101604.22;4229782;28;19964;-62
2023/12/23 08:56:05;;;;;;;;;;;;;;;14.25;48.22;101608.56;4230245;28;19919;-63
2023/12/23 08:58:06;;;;;;;;;;;;;;;14.25;47.98;101597.13;4230168;28;19947;-62
2023/12/23 09:00:09;;;;;;;;;;;;;;;14.24;48.21;101595.41;4230172;28;20006;-62
2023/12/23 09:02:10;;;;;;;;;;;;;;;14.25;48.23;101600.63;4230362;28;19923;-62
2023/12/23 09:04:12;;;;;;;;;;;;;;;14.23;48.24;101591.91;4230088;28;19924;-62
2023/12/23 09:06:14;;;;;;;;;;;;;;;14.23;48.10;101578.66;4230214;28;19920;-62
2023/12/23 09:08:17;;;;;;;;;;;;;;;14.23;48.21;101583.97;4232738;28;19919;-62
2023/12/23 09:10:18;;;;;;;;;;;;;;;14.23;48.40;101591.91;4233270;28;19920;-62
2023/12/23 09:12:20;;;;;;;;;;;;;;;14.23;47.96;101594.56;4233249;28;19951;-62
2023/12/23 09:14:22;;;;;;;;;;;;;;;14.23;48.29;101597.19;4232990;28;19963;-62
2023/12/23 09:16:24;;;;;;;;;;;;;;;14.24;48.16;101595.41;4233083;28;20340;-62
2023/12/23 09:18:25;;;;;;;;;;;;;;;14.24;48.16;101591.00;4233082;28;19926;-62
2023/12/23 09:20:28;;;;;;;;;;;;;;;14.24;48.12;101585.69;4232652;28;19934;-62
2023/12/23 09:22:30;;;;;;;;;;;;;;;14.26;48.26;101580.34;4232917;28;20023;-62
2023/12/23 09:24:32;;;;;;;;;;;;;;;14.26;48.08;101596.22;4232898;28;19973;-62
2023/12/23 09:26:33;;;;;;;;;;;;;;;14.26;48.44;101596.22;4232804;28;19920;-62
2023/12/23 09:28:36;;;;;;;;;;;;;;;14.26;48.22;101606.78;4232971;28;20381;-62
2023/12/23 09:30:37;;;;;;;;;;;;;;;14.27;48.20;101608.53;4232770;28;19919;-63
2023/12/23 09:32:39;;;;;;;;;;;;;;;14.25;48.34;101610.34;4232879;28;19927;-62
2023/12/23 09:34:40;;;;;;;;;;;;;;;14.25;48.15;101611.22;4232795;28;19927;-62
2023/12/23 09:36:42;;;;;;;;;;;;;;;14.25;48.20;101608.56;4232576;28;19919;-62
2023/12/23 09:38:44;;;;;;;;;;;;;;;14.26;48.40;101610.28;4232792;28;19920;-62
2023/12/23 09:40:45;;;;;;;;;;;;;;;14.26;48.51;101594.41;4232635;28;19923;-62
2023/12/23 09:42:47;;;;;;;;;;;;;;;14.25;48.13;101597.97;4232699;28;19924;-62
2023/12/23 09:44:49;;;;;;;;;;;;;;;14.25;47.82;101590.03;4232556;28;20002;-62
2023/12/23 09:46:50;;;;;;;;;;;;;;;14.26;48.45;101580.34;4232814;27;19919;-62
2023/12/23 09:48:52;;;;;;;;;;;;;;;14.23;48.31;101578.66;4232535;28;19972;-62
2023/12/23 09:50:54;;;;;;;;;;;;;;;14.26;48.24;101588.28;4232325;28;19920;-63
2023/12/23 09:52:58;;;;;;;;;;;;;;;14.25;48.35;101587.41;4232353;28;19919;-62
2023/12/23 09:55:02;;;;;;;;;;;;;;;14.25;48.37;101586.53;4232324;28;19949;-61
2023/12/23 09:57:08;;;;;;;;;;;;;;;14.26;48.57;101582.97;4232466;28;19924;-62
2023/12/23 09:59:09;;;;;;;;;;;;;;;14.25;48.28;101591.84;4232350;28;19984;-61
2023/12/23 10:01:11;;;;;;;;;;;;;;;14.22;48.46;101587.53;4230042;28;19928;-61
2023/12/23 10:03:13;;;;;;;;;;;;;;;14.25;48.70;101603.28;4231514;27;19959;-61
2023/12/23 10:05:15;;;;;;;;;;;;;;;14.26;48.94;101597.06;4232460;28;20333;-62
2023/12/23 10:07:16;;;;;;;;;;;;;;;14.27;48.98;101584.72;4232068;28;19923;-62
2023/12/23 10:09:18;;;;;;;;;;;;;;;14.29;48.88;101582.84;4231245;28;20014;-62
2023/12/23 10:11:20;;;;;;;;;;;;;;;14.30;49.00;101584.59;4230838;28;19919;-62
2023/12/23 10:13:21;;;;;;;;;;;;;;;14.30;49.17;101585.47;4229729;27;19973;-61
2023/12/23 10:15:23;;;;;;;;;;;;;;;14.32;49.41;101583.59;4230678;28;19928;-62
2023/12/23 10:17:24;;;;;;;;;;;;;;;14.34;49.48;101589.72;4230384;27;19919;-62
2023/12/23 10:19:26;;;;;;;;;;;;;;;14.34;49.59;101587.06;4230125;28;20003;-62
2023/12/23 10:21:28;;;;;;;;;;;;;;;14.33;50.36;101585.34;4230851;28;20409;-64
2023/12/23 10:23:29;;;;;;;;;;;;;;;14.33;50.90;101585.34;4230423;28;19925;-63
2023/12/23 10:25:31;;;;;;;;;;;;;;;14.32;50.84;101580.94;4231091;28;19927;-60